Time;durP1;ratioP1;P1;durP2;ratioP2;P2;SDS_P1;SDS_P2;PMS_P1;PMS_P2;Temp;Humidity;BMP_temperature;BMP_pressure;BME280_temperature;BME280_humidity;BME280_pressure;Samples;Min_cycle;Max_cycle;Signal;HPM_P1;HPM_P2
2022/09/06 00:02:02;;;;;;;;;;;461.20;2380.80;;;;;;5073914;28;20350;-66
2022/09/06 00:04:27;;;;;;;;;;;461.20;2380.80;;;;;;5073510;28;19908;-60
2022/09/06 00:06:53;;;;;;;;;;;461.10;2380.80;;;;;;5073825;28;19915;-59
2022/09/06 00:12:22;;;;;;;;;;;461.10;2380.80;;;;;;5073561;28;20063;-59
2022/09/06 00:14:48;;;;;;;;;;;461.20;2380.80;;;;;;5073288;28;19916;-59
2022/09/06 00:17:13;;;;;;;;;;;461.10;2380.80;;;;;;5073428;28;19908;-59
2022/09/06 00:19:39;;;;;;;;;;;461.10;2380.80;;;;;;5073101;28;19913;-59
2022/09/06 00:22:04;;;;;;;;;;;461.10;2380.80;;;;;;5073126;28;20262;-60
2022/09/06 00:24:30;;;;;;;;;;;461.10;2380.80;;;;;;5073651;28;19912;-59
2022/09/06 00:26:56;;;;;;;;;;;461.00;2380.80;;;;;;5073865;28;19908;-59
2022/09/06 00:29:21;;;;;;;;;;;461.10;2380.80;;;;;;5073369;28;19909;-59
2022/09/06 00:31:47;;;;;;;;;;;461.10;2380.80;;;;;;5073602;28;19967;-60
2022/09/06 00:34:12;;;;;;;;;;;460.90;2380.80;;;;;;5073598;28;20374;-59
2022/09/06 00:36:38;;;;;;;;;;;460.90;2380.80;;;;;;5073604;28;19931;-59
2022/09/06 00:42:07;;;;;;;;;;;460.80;2380.80;;;;;;5073233;28;20007;-59
2022/09/06 00:44:33;;;;;;;;;;;460.90;2380.80;;;;;;5072916;28;20255;-59
2022/09/06 00:46:58;;;;;;;;;;;460.90;2380.80;;;;;;5070372;28;19915;-59
2022/09/06 00:49:28;;;;;;;;;;;460.80;2380.80;;;;;;5070447;28;20318;-59
2022/09/06 00:51:56;;;;;;;;;;;460.80;2380.80;;;;;;5070028;28;19918;-59
2022/09/06 00:54:22;;;;;;;;;;;460.80;2380.80;;;;;;5070030;28;19913;-59
2022/09/06 00:56:48;;;;;;;;;;;460.80;2380.80;;;;;;5070470;28;20247;-59
2022/09/06 00:59:14;;;;;;;;;;;460.80;2380.80;;;;;;5070311;28;20355;-59
2022/09/06 01:01:39;;;;;;;;;;;436.10;2355.20;;;;;;5069994;28;19951;-60
2022/09/06 01:04:05;;;;;;;;;;;436.10;2355.20;;;;;;5070074;28;19944;-60
2022/09/06 01:06:49;;;;;;;;;;;436.10;2355.20;;;;;;5070171;28;20270;-60
2022/09/06 01:09:17;;;;;;;;;;;436.10;2355.20;;;;;;5070072;28;19912;-62
2022/09/06 01:11:48;;;;;;;;;;;436.00;2355.20;;;;;;5070056;28;19938;-59
2022/09/06 01:14:20;;;;;;;;;;;436.00;2355.20;;;;;;5070130;28;20382;-59
2022/09/06 01:16:54;;;;;;;;;;;436.00;2355.20;;;;;;5069864;28;19909;-59
2022/09/06 01:19:47;;;;;;;;;;;436.10;2355.20;;;;;;5070156;28;19953;-65
2022/09/06 01:22:23;;;;;;;;;;;460.80;2380.80;;;;;;5069845;28;19943;-58
2022/09/06 01:24:51;;;;;;;;;;;436.10;2355.20;;;;;;5069972;28;19912;-59
2022/09/06 01:27:35;;;;;;;;;;;436.10;2355.20;;;;;;5069791;28;19908;-59
2022/09/06 01:30:12;;;;;;;;;;;436.10;2355.20;;;;;;5070715;28;19913;-65
2022/09/06 01:32:55;;;;;;;;;;;460.80;2380.80;;;;;;5073496;28;19908;-59
2022/09/06 01:35:36;;;;;;;;;;;436.10;2355.20;;;;;;5073607;28;19909;-58
2022/09/06 01:38:03;;;;;;;;;;;436.10;2355.20;;;;;;5073488;28;19908;-59
2022/09/06 01:40:29;;;;;;;;;;;436.10;2355.20;;;;;;5073166;28;19909;-59
2022/09/06 01:42:56;;;;;;;;;;;460.80;2380.80;;;;;;5073393;28;19937;-64
2022/09/06 01:45:39;;;;;;;;;;;436.10;2355.20;;;;;;5073366;28;20293;-60
2022/09/06 01:48:11;;;;;;;;;;;460.80;2380.80;;;;;;5073047;28;19908;-60
2022/09/06 01:50:40;;;;;;;;;;;436.10;2355.20;;;;;;5072919;28;19917;-59
2022/09/06 01:53:13;;;;;;;;;;;460.80;2380.80;;;;;;5073051;28;19912;-60
2022/09/06 01:55:54;;;;;;;;;;;460.80;2380.80;;;;;;5073073;28;19908;-59
2022/09/06 01:58:29;;;;;;;;;;;436.00;2355.20;;;;;;5073390;28;20007;-59
2022/09/06 02:01:13;;;;;;;;;;;436.10;2355.20;;;;;;5073222;28;19919;-59
2022/09/06 02:03:41;;;;;;;;;;;436.00;2355.20;;;;;;5072625;28;20385;-59
2022/09/06 02:06:14;;;;;;;;;;;436.00;2355.20;;;;;;5072630;28;20306;-59
2022/09/06 02:08:42;;;;;;;;;;;436.00;2355.20;;;;;;5072439;28;20365;-59
2022/09/06 02:11:08;;;;;;;;;;;435.90;2355.20;;;;;;5072660;28;19977;-59
2022/09/06 02:13:37;;;;;;;;;;;436.00;2355.20;;;;;;5072941;28;20421;-59
2022/09/06 02:16:04;;;;;;;;;;;435.90;2355.20;;;;;;5072693;28;20317;-59
2022/09/06 02:18:43;;;;;;;;;;;435.90;2355.20;;;;;;5054071;28;20255;-59
2022/09/06 02:21:11;;;;;;;;;;;435.90;2355.20;;;;;;5072456;28;19913;-59
2022/09/06 02:23:38;;;;;;;;;;;435.90;2355.20;;;;;;5072299;28;19983;-60
2022/09/06 02:26:05;;;;;;;;;;;435.90;2355.20;;;;;;5072640;28;19995;-65
2022/09/06 02:28:31;;;;;;;;;;;435.80;2355.20;;;;;;5072536;28;19953;-61
2022/09/06 02:30:59;;;;;;;;;;;435.80;2355.20;;;;;;5072207;28;19920;-60
2022/09/06 02:33:27;;;;;;;;;;;435.70;2355.20;;;;;;5072419;28;19918;-60
2022/09/06 02:35:53;;;;;;;;;;;435.70;2355.20;;;;;;5072454;28;19909;-60
2022/09/06 02:38:23;;;;;;;;;;;435.70;2355.20;;;;;;5072198;28;19908;-60
2022/09/06 02:40:50;;;;;;;;;;;435.70;2355.20;;;;;;5072323;28;20262;-66
2022/09/06 02:43:16;;;;;;;;;;;435.60;2355.20;;;;;;5071601;28;20409;-66
2022/09/06 02:45:41;;;;;;;;;;;435.60;2355.20;;;;;;5072092;28;19940;-66
2022/09/06 02:48:07;;;;;;;;;;;435.60;2355.20;;;;;;5072076;28;19931;-59
2022/09/06 02:50:32;;;;;;;;;;;435.50;2355.20;;;;;;5072164;28;19970;-65
2022/09/06 02:53:05;;;;;;;;;;;435.50;2355.20;;;;;;5071848;28;20392;-60
2022/09/06 02:55:31;;;;;;;;;;;435.50;2355.20;;;;;;5071964;28;19908;-59
2022/09/06 02:57:57;;;;;;;;;;;435.50;2355.20;;;;;;5071672;28;19947;-59
2022/09/06 03:00:22;;;;;;;;;;;435.50;2355.20;;;;;;5071980;28;19940;-59
2022/09/06 03:02:48;;;;;;;;;;;435.60;2355.20;;;;;;5071770;28;19909;-59
2022/09/06 03:05:14;;;;;;;;;;;435.60;2355.20;;;;;;5071754;28;20394;-66
2022/09/06 03:07:39;;;;;;;;;;;435.60;2355.20;;;;;;5071578;28;19915;-59
2022/09/06 03:10:05;;;;;;;;;;;435.70;2355.20;;;;;;5071693;28;19916;-59
2022/09/06 03:12:30;;;;;;;;;;;435.60;2355.20;;;;;;5071568;28;19959;-59
2022/09/06 03:14:56;;;;;;;;;;;435.60;2355.20;;;;;;5071269;28;19908;-60
2022/09/06 03:17:22;;;;;;;;;;;435.60;2355.20;;;;;;5071512;28;19950;-60
2022/09/06 03:19:47;;;;;;;;;;;435.60;2355.20;;;;;;5071479;28;19946;-59
2022/09/06 03:22:13;;;;;;;;;;;435.50;2355.20;;;;;;5071255;28;20294;-60
2022/09/06 03:24:39;;;;;;;;;;;435.50;2355.20;;;;;;5071491;28;19973;-59
2022/09/06 03:27:04;;;;;;;;;;;435.60;2355.20;;;;;;5071277;28;19913;-59
2022/09/06 03:29:30;;;;;;;;;;;435.50;2355.20;;;;;;5071128;28;19939;-59
2022/09/06 03:31:56;;;;;;;;;;;435.50;2355.20;;;;;;5071118;28;19912;-59
2022/09/06 03:34:21;;;;;;;;;;;435.50;2355.20;;;;;;5071371;28;19908;-60
2022/09/06 03:36:47;;;;;;;;;;;435.40;2355.20;;;;;;5071233;28;19908;-59
2022/09/06 03:39:12;;;;;;;;;;;435.40;2355.20;;;;;;5071056;28;19909;-59
2022/09/06 03:41:38;;;;;;;;;;;435.30;2355.20;;;;;;5070839;28;19908;-59
2022/09/06 03:44:04;;;;;;;;;;;435.30;2355.20;;;;;;5071044;28;19908;-59
2022/09/06 03:46:29;;;;;;;;;;;435.30;2355.20;;;;;;5070855;28;19909;-59
2022/09/06 03:48:58;;;;;;;;;;;435.30;2355.20;;;;;;5071166;28;19999;-59
2022/09/06 03:51:24;;;;;;;;;;;435.30;2355.20;;;;;;5070880;28;19921;-59
2022/09/06 03:53:49;;;;;;;;;;;435.30;2355.20;;;;;;5069997;28;19920;-59
2022/09/06 03:56:15;;;;;;;;;;;435.30;2355.20;;;;;;5070649;28;20424;-58
2022/09/06 03:58:40;;;;;;;;;;;435.30;2355.20;;;;;;5070909;28;19998;-58
2022/09/06 04:01:07;;;;;;;;;;;435.30;2355.20;;;;;;5070761;28;19913;-59
2022/09/06 04:03:33;;;;;;;;;;;435.30;2355.20;;;;;;5070955;28;19997;-58
2022/09/06 04:05:59;;;;;;;;;;;435.30;2355.20;;;;;;5070718;28;20350;-59
2022/09/06 04:08:24;;;;;;;;;;;435.20;2355.20;;;;;;5070485;28;19913;-59
2022/09/06 04:10:54;;;;;;;;;;;435.30;2355.20;;;;;;5070446;28;20003;-59
2022/09/06 04:13:20;;;;;;;;;;;435.20;2355.20;;;;;;5070510;28;19908;-59
2022/09/06 04:15:46;;;;;;;;;;;435.30;2355.20;;;;;;5070268;28;20274;-59
2022/09/06 04:18:12;;;;;;;;;;;435.30;2355.20;;;;;;5070428;28;20380;-59
2022/09/06 04:20:38;;;;;;;;;;;435.20;2355.20;;;;;;5070182;28;19952;-59
2022/09/06 04:23:03;;;;;;;;;;;435.30;2355.20;;;;;;5070303;28;19978;-59
2022/09/06 04:25:29;;;;;;;;;;;435.30;2355.20;;;;;;5070121;28;19916;-59
2022/09/06 04:27:54;;;;;;;;;;;435.30;2355.20;;;;;;5070353;28;19920;-59
2022/09/06 04:30:20;;;;;;;;;;;435.40;2355.20;;;;;;5070402;28;19917;-59
2022/09/06 04:32:45;;;;;;;;;;;435.50;2355.20;;;;;;5070275;28;19915;-59
2022/09/06 04:35:11;;;;;;;;;;;435.50;2355.20;;;;;;5070607;28;19919;-59
2022/09/06 04:37:36;;;;;;;;;;;435.60;2355.20;;;;;;5070300;28;20370;-59
2022/09/06 04:40:02;;;;;;;;;;;435.60;2355.20;;;;;;5070592;28;19915;-59
2022/09/06 04:42:28;;;;;;;;;;;435.60;2355.20;;;;;;5070078;28;20407;-59
2022/09/06 04:44:53;;;;;;;;;;;435.70;2355.20;;;;;;5070390;28;19909;-60
2022/09/06 04:47:19;;;;;;;;;;;435.80;2355.20;;;;;;5070059;28;19915;-64
2022/09/06 04:49:45;;;;;;;;;;;435.90;2355.20;;;;;;5069974;28;20006;-60
2022/09/06 04:52:10;;;;;;;;;;;435.90;2355.20;;;;;;5070241;28;19917;-59
2022/09/06 04:54:36;;;;;;;;;;;436.00;2355.20;;;;;;5070344;28;19920;-59
2022/09/06 04:57:02;;;;;;;;;;;436.10;2355.20;;;;;;5070384;28;19916;-60
2022/09/06 04:59:28;;;;;;;;;;;436.10;2355.20;;;;;;5069952;28;20332;-59
2022/09/06 05:01:53;;;;;;;;;;;436.00;2355.20;;;;;;5070137;28;19908;-60
2022/09/06 05:04:19;;;;;;;;;;;461.10;2380.80;;;;;;5070057;28;20355;-59
2022/09/06 05:06:45;;;;;;;;;;;486.90;2380.80;;;;;;5073816;28;19966;-61
2022/09/06 05:09:10;;;;;;;;;;;538.20;2406.40;;;;;;5074025;28;19908;-59
2022/09/06 05:11:36;;;;;;;;;;;589.00;2432.00;;;;;;5073735;28;19916;-60
2022/09/06 05:14:01;;;;;;;;;;;614.90;2432.00;;;;;;5074049;28;19916;-60
2022/09/06 05:16:27;;;;;;;;;;;640.00;2406.40;;;;;;5073577;28;19908;-59
2022/09/06 05:18:52;;;;;;;;;;;640.10;2380.80;;;;;;5073937;28;19909;-59
2022/09/06 05:21:18;;;;;;;;;;;614.70;2432.00;;;;;;5073410;28;19967;-59
2022/09/06 05:23:44;;;;;;;;;;;564.10;2432.00;;;;;;5073666;28;19932;-59
2022/09/06 05:26:09;;;;;;;;;;;564.10;2432.00;;;;;;5073422;28;20287;-59
2022/09/06 05:28:35;;;;;;;;;;;589.40;2432.00;;;;;;5073426;28;19916;-60
2022/09/06 05:31:08;;;;;;;;;;;614.40;2432.00;;;;;;5073540;28;19916;-62
2022/09/06 05:33:33;;;;;;;;;;;614.70;2432.00;;;;;;5073527;28;19954;-66
2022/09/06 05:35:59;;;;;;;;;;;589.10;2432.00;;;;;;5073457;28;19912;-60
2022/09/06 05:38:24;;;;;;;;;;;589.10;2432.00;;;;;;5073201;28;19913;-61
2022/09/06 05:40:50;;;;;;;;;;;640.00;2432.00;;;;;;5073524;28;19909;-60
2022/09/06 05:43:16;;;;;;;;;;;665.60;2304.00;;;;;;5073250;28;19916;-59
2022/09/06 05:45:41;;;;;;;;;;;665.80;2201.60;;;;;;5073355;28;20023;-60
2022/09/06 05:48:07;;;;;;;;;;;640.60;2252.80;;;;;;5073129;28;19909;-60
2022/09/06 05:50:33;;;;;;;;;;;615.10;2355.20;;;;;;5073448;28;19916;-59
2022/09/06 05:52:58;;;;;;;;;;;615.00;2406.40;;;;;;5073179;28;20018;-59
2022/09/06 05:55:24;;;;;;;;;;;640.40;2329.60;;;;;;5073314;28;20282;-60
2022/09/06 05:57:49;;;;;;;;;;;615.00;2432.00;;;;;;5073052;28;20047;-60
2022/09/06 06:00:15;;;;;;;;;;;614.80;2432.00;;;;;;5072831;28;20419;-60
2022/09/06 06:02:41;;;;;;;;;;;666.30;2278.40;;;;;;5073111;28;19912;-59
2022/09/06 06:05:07;;;;;;;;;;;742.80;1971.20;;;;;;5072715;28;20357;-55
2022/09/06 06:07:32;;;;;;;;;;;793.70;1792.00;;;;;;5072961;28;19908;-57
2022/09/06 06:09:58;;;;;;;;;;;819.90;1664.00;;;;;;5072613;28;19916;-61
2022/09/06 06:12:23;;;;;;;;;;;845.40;1561.60;;;;;;5072917;28;19908;-61
2022/09/06 06:14:49;;;;;;;;;;;844.90;1587.20;;;;;;5072675;28;19909;-60
2022/09/06 06:17:15;;;;;;;;;;;870.50;1510.40;;;;;;5071709;28;20313;-55
2022/09/06 06:19:40;;;;;;;;;;;871.10;1484.80;;;;;;5072491;28;19909;-56
2022/09/06 06:22:06;;;;;;;;;;;896.50;1459.20;;;;;;5072253;28;19974;-56
2022/09/06 06:24:32;;;;;;;;;;;921.70;1408.00;;;;;;5072424;28;20355;-60
2022/09/06 06:26:57;;;;;;;;;;;;;;;;;;5072437;28;19909;-61
2022/09/06 06:29:24;;;;;;;;;;;921.80;1382.40;;;;;;5072522;28;19916;-53
2022/09/06 06:31:49;;;;;;;;;;;973.10;1305.60;;;;;;5072340;28;20428;-59
2022/09/06 06:34:17;;;;;;;;;;;973.70;1228.80;;;;;;5072029;28;19909;-53
2022/09/06 06:36:43;;;;;;;;;;;999.10;1228.80;;;;;;5072630;28;19954;-59
2022/09/06 06:39:08;;;;;;;;;;;1024.20;1203.20;;;;;;5072040;28;19909;-53
2022/09/06 06:41:34;;;;;;;;;;;1024.70;1177.60;;;;;;5072321;28;19912;-54
2022/09/06 06:44:01;;;;;;;;;;;999.30;1228.80;;;;;;5072260;28;19915;-61
2022/09/06 06:46:27;;;;;;;;;;;1024.30;1203.20;;;;;;5072221;28;19909;-55
2022/09/06 06:48:54;;;;;;;;;;;999.20;1228.80;;;;;;5072289;28;20316;-56
2022/09/06 06:51:20;;;;;;;;;;;1024.20;1203.20;;;;;;5071704;28;19928;-55
2022/09/06 06:53:46;;;;;;;;;;;1024.90;1177.60;;;;;;5071842;28;19920;-56
2022/09/06 06:56:16;;;;;;;;;;;1024.90;1177.60;;;;;;5072311;28;19920;-62
2022/09/06 06:58:42;;;;;;;;;;;1024.90;1152.00;;;;;;5072091;28;19912;-62
2022/09/06 07:01:08;;;;;;;;;;;1024.90;1152.00;;;;;;5071658;28;20007;-62
2022/09/06 07:03:35;;;;;;;;;;;1049.70;1177.60;;;;;;5071807;28;20281;-61
2022/09/06 07:06:01;;;;;;;;;;;1049.60;1203.20;;;;;;5071502;28;19909;-61
2022/09/06 07:08:26;;;;;;;;;;;1024.60;1177.60;;;;;;5071359;28;19908;-61
2022/09/06 07:10:52;;;;;;;;;;;1050.40;1152.00;;;;;;5071566;28;19924;-57
2022/09/06 07:13:18;;;;;;;;;;;1050.40;1177.60;;;;;;5071482;28;19920;-56
2022/09/06 07:15:44;;;;;;;;;;;;;;;;;;5071599;28;20255;-56
2022/09/06 07:18:09;;;;;;;;;;;1075.50;1126.40;;;;;;5071350;28;20347;-57
2022/09/06 07:20:35;;;;;;;;;;;1126.50;1075.20;;;;;;5071170;28;19913;-55
2022/09/06 07:23:01;;;;;;;;;;;1101.70;1049.60;;;;;;5071179;28;20281;-62
2022/09/06 07:25:27;;;;;;;;;;;1126.50;1075.20;;;;;;5071281;28;19908;-62
2022/09/06 07:27:57;;;;;;;;;;;1101.40;1049.60;;;;;;5071270;28;19916;-57
2022/09/06 07:30:23;;;;;;;;;;;1126.50;1049.60;;;;;;5071155;28;19917;-56
2022/09/06 07:32:48;;;;;;;;;;;1126.80;1049.60;;;;;;5071067;28;20380;-64
2022/09/06 07:35:14;;;;;;;;;;;1127.00;1024.00;;;;;;5071223;28;19915;-57
2022/09/06 07:37:39;;;;;;;;;;;1152.40;1024.00;;;;;;5070895;28;19992;-57
2022/09/06 07:40:05;;;;;;;;;;;1101.60;1024.00;;;;;;5070934;28;19913;-56
2022/09/06 07:42:31;;;;;;;;;;;1101.30;1049.60;;;;;;5070901;28;19953;-64
2022/09/06 07:44:56;;;;;;;;;;;1100.90;1049.60;;;;;;5071086;28;19908;-58
2022/09/06 07:47:22;;;;;;;;;;;1050.00;1100.80;;;;;;5071234;28;20270;-56
2022/09/06 07:49:48;;;;;;;;;;;1075.80;1075.20;;;;;;5070780;28;19913;-62
2022/09/06 07:52:13;;;;;;;;;;;1075.50;1075.20;;;;;;5070774;28;19916;-63
2022/09/06 07:54:39;;;;;;;;;;;1050.30;1100.80;;;;;;5071029;28;19959;-56
2022/09/06 07:57:04;;;;;;;;;;;1024.50;1126.40;;;;;;5071216;28;20385;-63
2022/09/06 07:59:30;;;;;;;;;;;1050.50;1100.80;;;;;;5070956;28;19909;-56
2022/09/06 08:01:55;;;;;;;;;;;1075.60;1049.60;;;;;;5070849;28;19908;-56
2022/09/06 08:04:21;;;;;;;;;;;1024.90;1100.80;;;;;;5070819;28;19909;-57
2022/09/06 08:06:48;;;;;;;;;;;1049.60;1126.40;;;;;;5070715;28;19999;-56
2022/09/06 08:09:14;;;;;;;;;;;1024.60;1126.40;;;;;;5070675;28;20389;-56
2022/09/06 08:11:40;;;;;;;;;;;1024.30;1126.40;;;;;;5070411;28;19916;-56
2022/09/06 08:14:06;;;;;;;;;;;1100.80;1049.60;;;;;;5070850;28;19912;-56
2022/09/06 08:16:32;;;;;;;;;;;1127.00;1024.00;;;;;;5070730;28;19908;-57
2022/09/06 08:18:59;;;;;;;;;;;1152.00;1024.00;;;;;;5070458;28;19908;-56
2022/09/06 08:21:26;;;;;;;;;;;1075.70;1075.20;;;;;;5070344;28;20280;-59
2022/09/06 08:23:53;;;;;;;;;;;1050.40;1100.80;;;;;;5070609;28;19928;-56
2022/09/06 08:26:19;;;;;;;;;;;1050.00;1100.80;;;;;;5070328;28;19948;-63
2022/09/06 08:28:45;;;;;;;;;;;1024.30;1126.40;;;;;;5070608;28;20321;-56
2022/09/06 08:31:15;;;;;;;;;;;1050.50;1100.80;;;;;;5070342;28;19926;-56
2022/09/06 08:33:41;;;;;;;;;;;1075.40;1075.20;;;;;;5070465;28;19908;-63
2022/09/06 08:36:07;;;;;;;;;;;1024.60;1100.80;;;;;;5070293;28;20350;-56
2022/09/06 08:38:33;;;;;;;;;;;1024.20;1100.80;;;;;;5070774;28;19909;-56
2022/09/06 08:41:08;;;;;;;;;;;1024.90;1100.80;;;;;;5072957;28;19916;-56
2022/09/06 08:43:34;;;;;;;;;;;1075.50;1075.20;;;;;;5074515;28;20050;-55
2022/09/06 08:46:00;;;;;;;;;;;1024.90;1075.20;;;;;;5074269;28;19990;-56
2022/09/06 08:48:28;;;;;;;;;;;999.20;1152.00;;;;;;5074382;28;19920;-56
2022/09/06 08:51:06;;;;;;;;;;;947.80;1177.60;;;;;;5074106;28;19928;-55
2022/09/06 08:53:36;;;;;;;;;;;922.10;1254.40;;;;;;5074352;28;20354;-56
2022/09/06 08:56:12;;;;;;;;;;;870.50;1331.20;;;;;;5074295;28;19908;-55
2022/09/06 08:58:37;;;;;;;;;;;844.80;1382.40;;;;;;5074110;28;19909;-55
2022/09/06 09:01:06;;;;;;;;;;;819.70;1382.40;;;;;;5074144;28;19995;-55
2022/09/06 09:03:35;;;;;;;;;;;819.80;1382.40;;;;;;5074134;28;19916;-55
2022/09/06 09:06:04;;;;;;;;;;;819.40;1382.40;;;;;;5074316;28;20415;-55
2022/09/06 09:08:46;;;;;;;;;;;819.30;1382.40;;;;;;5073704;28;20366;-55
2022/09/06 09:11:24;;;;;;;;;;;794.20;1408.00;;;;;;5073879;28;19939;-55
2022/09/06 09:13:54;;;;;;;;;;;793.80;1433.60;;;;;;5073510;28;19915;-55
2022/09/06 09:16:20;;;;;;;;;;;768.50;1459.20;;;;;;5073739;28;19931;-55
2022/09/06 09:18:49;;;;;;;;;;;793.90;1459.20;;;;;;5074029;28;20289;-56
2022/09/06 09:21:17;;;;;;;;;;;794.20;1408.00;;;;;;5073450;28;19958;-61
2022/09/06 09:23:43;;;;;;;;;;;794.20;1408.00;;;;;;5073604;28;19928;-55
2022/09/06 09:26:13;;;;;;;;;;;793.90;1433.60;;;;;;5073484;28;19948;-56
2022/09/06 09:28:59;;;;;;;;;;;793.80;1433.60;;;;;;5073354;28;19948;-56
2022/09/06 09:31:48;;;;;;;;;;;768.70;1484.80;;;;;;5073345;28;19920;-56
2022/09/06 09:34:33;;;;;;;;;;;743.00;1510.40;;;;;;4972627;28;19989;-55
2022/09/06 09:37:17;;;;;;;;;;;768.50;1484.80;;;;;;4972534;28;19922;-55
2022/09/06 09:39:42;;;;;;;;;;;742.90;1536.00;;;;;;4972656;28;20015;-61
2022/09/06 09:42:08;;;;;;;;;;;743.10;1536.00;;;;;;4972450;28;20388;-61
2022/09/06 09:44:35;;;;;;;;;;;768.40;1536.00;;;;;;4972591;28;20262;-55
2022/09/06 09:47:08;;;;;;;;;;;768.50;1510.40;;;;;;4972480;28;19996;-61
2022/09/06 09:49:34;;;;;;;;;;;768.90;1510.40;;;;;;4972505;28;20364;-55
2022/09/06 09:52:09;;;;;;;;;;;768.60;1510.40;;;;;;4970773;28;19925;-61
2022/09/06 09:54:43;;;;;;;;;;;793.60;1536.00;;;;;;4972265;28;19921;-55
2022/09/06 09:57:10;;;;;;;;;;;793.80;1484.80;;;;;;4972147;28;20030;-55
2022/09/06 09:59:36;;;;;;;;;;;793.90;1536.00;;;;;;4972414;28;20515;-55
2022/09/06 10:02:15;;;;;;;;;;;768.60;1510.40;;;;;;4972347;28;20378;-61
2022/09/06 10:04:44;;;;;;;;;;;768.60;1484.80;;;;;;4972080;28;19910;-56
2022/09/06 10:07:20;;;;;;;;;;;768.40;1510.40;;;;;;4971761;28;20360;-55
2022/09/06 10:09:47;;;;;;;;;;;768.40;1536.00;;;;;;4972139;28;22470;-56
2022/09/06 10:12:17;;;;;;;;;;;743.00;1587.20;;;;;;5063951;28;19912;-55
2022/09/06 10:14:44;;;;;;;;;;;742.90;1536.00;;;;;;5072740;28;19999;-61
2022/09/06 10:17:17;;;;;;;;;;;768.10;1536.00;;;;;;5072559;28;20446;-55
2022/09/06 10:19:44;;;;;;;;;;;768.20;1536.00;;;;;;5072703;28;20384;-61
2022/09/06 10:22:42;;;;;;;;;;;768.50;1510.40;;;;;;5072175;28;20007;-55
2022/09/06 10:25:10;;;;;;;;;;;743.10;1561.60;;;;;;4971323;28;20276;-55
2022/09/06 10:27:38;;;;;;;;;;;742.90;1561.60;;;;;;4971177;28;19910;-55
2022/09/06 10:30:07;;;;;;;;;;;742.80;1587.20;;;;;;4971623;28;19919;-61
2022/09/06 10:32:47;;;;;;;;;;;717.70;1561.60;;;;;;4971855;28;19953;-61
2022/09/06 10:35:21;;;;;;;;;;;742.80;1561.60;;;;;;4971664;28;19910;-55
2022/09/06 10:37:59;;;;;;;;;;;717.60;1561.60;;;;;;4971755;28;19910;-55
2022/09/06 10:40:24;;;;;;;;;;;742.50;1536.00;;;;;;4971541;28;20316;-61
2022/09/06 10:42:54;;;;;;;;;;;742.80;1587.20;;;;;;4971557;28;19910;-61
2022/09/06 10:45:19;;;;;;;;;;;743.00;1510.40;;;;;;4971639;28;19917;-55
2022/09/06 10:48:04;;;;;;;;;;;742.90;1664.00;;;;;;4971524;28;19914;-61
2022/09/06 10:50:33;;;;;;;;;;;717.70;1561.60;;;;;;4970743;28;19925;-55
2022/09/06 10:53:04;;;;;;;;;;;743.10;1561.60;;;;;;4971283;28;20279;-60
2022/09/06 10:55:31;;;;;;;;;;;742.40;1587.20;;;;;;4971126;28;20360;-55
2022/09/06 10:58:03;;;;;;;;;;;742.70;1587.20;;;;;;4971138;28;19914;-55
2022/09/06 11:00:31;;;;;;;;;;;717.70;1536.00;;;;;;5012146;28;19915;-59
2022/09/06 11:03:06;;;;;;;;;;;717.70;1536.00;;;;;;5071267;28;19912;-57
2022/09/06 11:05:40;;;;;;;;;;;717.70;1612.80;;;;;;5071873;28;19919;-61
2022/09/06 11:08:20;;;;;;;;;;;717.70;1561.60;;;;;;5071762;28;19913;-55
2022/09/06 11:10:48;;;;;;;;;;;742.50;1561.60;;;;;;5071518;28;19920;-55
2022/09/06 11:13:25;;;;;;;;;;;742.40;1536.00;;;;;;5071676;28;19915;-60
2022/09/06 11:16:00;;;;;;;;;;;742.60;1536.00;;;;;;5071636;28;19916;-61
2022/09/06 11:18:35;;;;;;;;;;;742.50;1536.00;;;;;;5071543;28;19919;-56
2022/09/06 11:21:12;;;;;;;;;;;742.80;1561.60;;;;;;5071503;28;20290;-60
2022/09/06 11:23:52;;;;;;;;;;;717.70;1536.00;;;;;;5070934;28;19932;-60
2022/09/06 11:26:24;;;;;;;;;;;742.70;1587.20;;;;;;5071113;28;19909;-55
2022/09/06 11:28:54;;;;;;;;;;;717.50;1536.00;;;;;;5071449;28;20335;-58
2022/09/06 11:31:26;;;;;;;;;;;742.50;1587.20;;;;;;5071212;28;20377;-61
2022/09/06 11:34:03;;;;;;;;;;;742.70;1612.80;;;;;;5071288;28;19909;-55
2022/09/06 11:36:36;;;;;;;;;;;742.80;1536.00;;;;;;5070993;28;19956;-55
2022/09/06 11:39:03;;;;;;;;;;;743.00;1587.20;;;;;;5071172;28;19950;-55
2022/09/06 11:41:30;;;;;;;;;;;743.00;1561.60;;;;;;5070999;28;19908;-55
2022/09/06 11:43:55;;;;;;;;;;;743.00;1536.00;;;;;;5070819;28;19919;-56
2022/09/06 11:46:33;;;;;;;;;;;743.00;1510.40;;;;;;5071176;28;19908;-57
2022/09/06 11:49:00;;;;;;;;;;;742.70;1536.00;;;;;;5070916;28;20351;-55
2022/09/06 11:51:32;;;;;;;;;;;742.80;1536.00;;;;;;5070663;28;19925;-55
2022/09/06 11:53:58;;;;;;;;;;;742.40;1561.60;;;;;;5070962;28;19918;-61
2022/09/06 11:56:23;;;;;;;;;;;717.70;1510.40;;;;;;5070855;28;20007;-55
2022/09/06 11:58:58;;;;;;;;;;;717.70;1510.40;;;;;;5070747;28;19916;-55
2022/09/06 12:01:23;;;;;;;;;;;742.40;1536.00;;;;;;5070788;28;19909;-61
2022/09/06 12:03:52;;;;;;;;;;;742.50;1536.00;;;;;;5070702;28;20046;-55
2022/09/06 12:06:20;;;;;;;;;;;742.50;1536.00;;;;;;5070784;28;19908;-56
2022/09/06 12:08:47;;;;;;;;;;;742.60;1536.00;;;;;;5070802;28;20408;-62
2022/09/06 12:11:24;;;;;;;;;;;742.90;1561.60;;;;;;5070675;28;19939;-55
2022/09/06 12:13:50;;;;;;;;;;;743.00;1612.80;;;;;;5070779;28;19908;-55
2022/09/06 12:16:16;;;;;;;;;;;742.90;1561.60;;;;;;5069934;28;19915;-56
2022/09/06 12:18:41;;;;;;;;;;;743.00;1561.60;;;;;;5070551;28;19912;-61
2022/09/06 12:21:07;;;;;;;;;;;743.00;1510.40;;;;;;5070171;28;19912;-55
2022/09/06 12:23:33;;;;;;;;;;;743.00;1510.40;;;;;;5070412;28;19924;-55
2022/09/06 12:25:58;;;;;;;;;;;743.00;1484.80;;;;;;5070199;28;20372;-56
2022/09/06 12:28:26;;;;;;;;;;;742.60;1484.80;;;;;;5070370;28;19908;-55
2022/09/06 12:30:52;;;;;;;;;;;742.60;1484.80;;;;;;5070361;28;19963;-59
2022/09/06 12:33:22;;;;;;;;;;;742.60;1459.20;;;;;;5070338;28;19915;-56
2022/09/06 12:35:48;;;;;;;;;;;742.60;1459.20;;;;;;5070292;28;19962;-57
2022/09/06 12:38:17;;;;;;;;;;;717.70;1433.60;;;;;;5070895;28;19908;-60
2022/09/06 12:40:47;;;;;;;;;;;717.70;1408.00;;;;;;5070506;28;20315;-58
2022/09/06 12:43:14;;;;;;;;;;;742.50;1433.60;;;;;;5070386;28;19909;-56
2022/09/06 12:45:43;;;;;;;;;;;742.40;1433.60;;;;;;5070154;28;20367;-55
2022/09/06 12:48:10;;;;;;;;;;;742.50;1433.60;;;;;;5070077;28;19912;-55
2022/09/06 12:50:36;;;;;;;;;;;742.60;1433.60;;;;;;5069987;28;19985;-56
2022/09/06 12:53:02;;;;;;;;;;;742.80;1510.40;;;;;;5070228;28;19916;-56
2022/09/06 12:55:33;;;;;;;;;;;742.70;1510.40;;;;;;5070079;28;19909;-55
2022/09/06 12:58:00;;;;;;;;;;;743.00;1536.00;;;;;;5070049;28;19909;-55
2022/09/06 13:00:55;;;;;;;;;;;743.10;1510.40;;;;;;5069929;28;19954;-55
2022/09/06 13:03:20;;;;;;;;;;;743.00;1408.00;;;;;;4969679;28;19917;-55
2022/09/06 13:05:46;;;;;;;;;;;742.50;1408.00;;;;;;4969202;28;19910;-59
2022/09/06 13:08:13;;;;;;;;;;;742.80;1433.60;;;;;;4969445;28;19942;-63
2022/09/06 13:10:40;;;;;;;;;;;742.80;1484.80;;;;;;4969032;28;19973;-61
2022/09/06 13:13:06;;;;;;;;;;;742.80;1459.20;;;;;;4969202;28;19953;-55
2022/09/06 13:15:32;;;;;;;;;;;742.80;1433.60;;;;;;4969319;28;20395;-61
2022/09/06 13:18:18;;;;;;;;;;;742.80;1459.20;;;;;;4969221;28;19950;-61
2022/09/06 13:20:43;;;;;;;;;;;742.80;1459.20;;;;;;4968616;28;19910;-61
2022/09/06 13:23:10;;;;;;;;;;;742.60;1459.20;;;;;;4968881;28;19937;-61
2022/09/06 13:25:46;;;;;;;;;;;742.40;1459.20;;;;;;4969208;28;19914;-56
2022/09/06 13:28:22;;;;;;;;;;;717.50;1459.20;;;;;;4972804;28;20410;-62
2022/09/06 13:31:00;;;;;;;;;;;717.60;1433.60;;;;;;4972608;28;19918;-61
2022/09/06 13:33:25;;;;;;;;;;;742.50;1484.80;;;;;;4972851;28;20373;-55
2022/09/06 13:36:03;;;;;;;;;;;717.70;1408.00;;;;;;4972736;28;19910;-60
2022/09/06 13:38:37;;;;;;;;;;;717.70;1459.20;;;;;;4972442;28;19910;-61
2022/09/06 13:41:04;;;;;;;;;;;742.40;1459.20;;;;;;5073443;28;19909;-62
2022/09/06 13:43:32;;;;;;;;;;;717.70;1433.60;;;;;;5073437;28;19934;-61
2022/09/06 13:46:04;;;;;;;;;;;717.70;1408.00;;;;;;5073215;28;19954;-61
2022/09/06 13:48:29;;;;;;;;;;;717.70;1433.60;;;;;;5072998;28;19962;-55
2022/09/06 13:50:55;;;;;;;;;;;717.40;1408.00;;;;;;5073105;28;19924;-56
2022/09/06 13:53:20;;;;;;;;;;;717.60;1408.00;;;;;;5073502;28;19913;-55